Time;durP1;ratioP1;P1;durP2;ratioP2;P2;SDS_P1;SDS_P2;PMS_P1;PMS_P2;Temp;Humidity;BMP_temperature;BMP_pressure;BME280_temperature;BME280_humidity;BME280_pressure;Samples;Min_cycle;Max_cycle;Signal;HPM_P1;HPM_P2
2023/10/19 00:03:33;;;;;;;12.55;6.60;;;;;;;12.53;74.54;98610.53;10217164;28;20058;-60
2023/10/19 00:08:43;;;;;;;13.63;6.97;;;;;;;12.50;74.27;98605.63;10215518;28;20139;-61
2023/10/19 00:13:45;;;;;;;12.70;6.82;;;;;;;12.42;75.07;98600.53;10220374;28;20051;-64
2023/10/19 00:18:48;;;;;;;15.48;7.50;;;;;;;12.54;74.95;98593.31;10219516;28;20579;-64
2023/10/19 00:23:57;;;;;;;13.32;7.53;;;;;;;12.57;74.70;98582.06;10216725;28;20521;-65
2023/10/19 00:29:14;;;;;;;13.07;7.00;;;;;;;12.66;74.83;98588.75;10221616;28;20043;-64
2023/10/19 00:34:15;;;;;;;13.05;7.05;;;;;;;12.67;75.07;98573.38;10219249;28;20043;-63
2023/10/19 00:39:21;;;;;;;13.77;8.43;;;;;;;12.62;74.94;98568.72;10216306;28;20143;-64
2023/10/19 00:44:25;;;;;;;17.75;8.15;;;;;;;12.52;75.66;98568.47;10216050;28;20661;-62
2023/10/19 00:49:26;;;;;;;14.40;8.00;;;;;;;12.55;75.66;98572.56;10219320;28;20050;-63
2023/10/19 00:54:42;;;;;;;15.68;8.43;;;;;;;12.39;76.39;98568.69;10225074;28;20071;-64
2023/10/19 00:59:47;;;;;;;19.65;7.75;;;;;;;12.30;76.74;98552.84;10218764;28;20564;-62
2023/10/19 01:05:05;;;;;;;14.27;7.90;;;;;;;12.52;75.97;98540.69;10219210;28;20052;-63
2023/10/19 01:10:08;;;;;;;17.27;8.30;;;;;;;12.59;76.02;98544.91;10221236;28;20066;-62
2023/10/19 01:15:18;;;;;;;20.73;8.57;;;;;;;12.48;76.57;98534.97;10222249;28;20059;-62
2023/10/19 01:25:44;;;;;;;16.60;8.10;;;;;;;12.50;76.71;98530.16;10217442;28;20422;-60
2023/10/19 01:30:51;;;;;;;16.80;8.00;;;;;;;12.45;76.97;98530.84;10216606;28;20066;-60
2023/10/19 01:36:11;;;;;;;16.00;7.18;;;;;;;12.37;77.01;98528.50;10213697;28;20195;-61
2023/10/19 01:41:14;;;;;;;18.48;7.70;;;;;;;12.42;77.19;98531.31;10217756;28;20503;-61
2023/10/19 01:46:24;;;;;;;14.65;7.45;;;;;;;12.60;76.60;98524.16;10220282;28;20398;-59
2023/10/19 01:51:28;;;;;;;14.85;7.55;;;;;;;12.70;76.36;98522.53;10218133;28;20527;-61
2023/10/19 01:56:30;;;;;;;15.80;8.27;;;;;;;12.74;76.47;98495.91;10226003;28;20050;-61
2023/10/19 02:01:32;;;;;;;15.60;7.80;;;;;;;12.77;76.46;98502.72;10220080;28;20055;-60
2023/10/19 02:06:38;;;;;;;14.40;7.55;;;;;;;12.74;76.55;98504.00;10214217;28;20601;-60
2023/10/19 02:11:42;;;;;;;14.23;7.25;;;;;;;12.73;76.68;98496.97;10220227;28;20687;-59
2023/10/19 02:16:52;;;;;;;15.95;7.38;;;;;;;12.75;76.54;98491.34;10220071;28;20126;-62
2023/10/19 02:22:00;;;;;;;15.20;7.75;;;;;;;12.65;76.97;98481.16;10218974;28;20055;-61
2023/10/19 02:27:01;;;;;;;17.30;8.15;;;;;;;12.76;76.63;98479.53;10215557;28;20040;-60
2023/10/19 02:32:04;;;;;;;19.08;9.00;;;;;;;12.80;76.45;98469.91;10216449;28;20048;-62
2023/10/19 02:37:07;;;;;;;15.18;7.47;;;;;;;12.92;76.20;98469.88;10218657;28;20058;-62
2023/10/19 02:42:09;;;;;;;17.30;8.50;;;;;;;13.04;76.04;98467.97;10213354;28;20057;-62
2023/10/19 02:47:10;;;;;;;17.10;8.88;;;;;;;13.13;75.79;98463.00;10213882;28;20085;-61
2023/10/19 02:52:15;;;;;;;15.68;8.18;;;;;;;13.12;75.73;98455.97;10218555;28;20114;-62
2023/10/19 02:57:19;;;;;;;15.73;8.68;;;;;;;13.14;75.90;98443.88;10226002;28;20047;-61
2023/10/19 03:02:20;;;;;;;17.60;8.25;;;;;;;13.23;75.78;98457.81;10215298;28;20391;-61
2023/10/19 03:07:22;;;;;;;18.52;7.82;;;;;;;13.22;75.80;98454.28;10224471;28;20145;-62
2023/10/19 03:12:26;;;;;;;17.90;7.85;;;;;;;13.20;75.98;98448.31;10220006;28;20075;-62
2023/10/19 03:17:30;;;;;;;16.30;8.43;;;;;;;13.28;75.70;98447.94;10217453;28;20051;-62
2023/10/19 03:22:32;;;;;;;20.52;8.30;;;;;;;13.15;75.98;98442.00;10228261;28;20532;-61
2023/10/19 03:27:33;;;;;;;19.92;8.82;;;;;;;13.18;75.82;98441.53;10220507;28;20051;-61
2023/10/19 03:32:35;;;;;;;22.33;9.40;;;;;;;13.14;76.18;98432.28;10217555;28;20047;-61
2023/10/19 03:37:37;;;;;;;19.77;9.90;;;;;;;13.19;75.78;98438.59;10220944;28;20115;-61
2023/10/19 03:42:41;;;;;;;27.65;10.70;;;;;;;13.23;75.80;98418.16;10217027;28;20051;-58
2023/10/19 03:47:43;;;;;;;21.80;11.30;;;;;;;13.30;75.58;98415.34;10217343;28;20365;-60
2023/10/19 03:52:45;;;;;;;20.70;9.20;;;;;;;13.28;75.75;98412.84;10250917;28;20039;-59
2023/10/19 03:57:50;;;;;;;19.80;10.55;;;;;;;13.36;75.46;98417.06;10225432;28;20050;-60
2023/10/19 04:02:55;;;;;;;24.88;11.07;;;;;;;13.43;75.36;98422.34;10226183;28;20046;-60
2023/10/19 04:07:58;;;;;;;22.08;10.30;;;;;;;13.47;75.27;98408.09;10224439;28;20138;-59
2023/10/19 04:13:00;;;;;;;22.17;9.70;;;;;;;13.54;75.24;98388.25;10229286;28;20525;-60
2023/10/19 04:18:08;;;;;;;19.80;9.57;;;;;;;13.58;75.27;98390.19;10227804;28;20040;-59
2023/10/19 04:23:11;;;;;;;21.52;9.10;;;;;;;13.63;75.45;98394.88;10225516;28;20044;-60
2023/10/19 04:28:14;;;;;;;25.30;11.00;;;;;;;13.66;75.29;98375.47;10227193;28;20058;-59
2023/10/19 04:33:17;;;;;;;25.95;12.82;;;;;;;13.68;75.26;98352.59;10223715;28;20047;-61
2023/10/19 04:38:18;;;;;;;22.88;10.80;;;;;;;13.71;75.21;98358.56;10225283;28;20043;-60
2023/10/19 04:43:21;;;;;;;26.88;11.80;;;;;;;13.68;75.37;98355.28;10220850;28;20049;-62
2023/10/19 04:48:23;;;;;;;27.20;11.88;;;;;;;13.74;75.39;98349.94;10219430;28;20114;-59
2023/10/19 04:53:24;;;;;;;28.33;12.00;;;;;;;13.72;75.30;98349.38;10230430;28;20044;-59
2023/10/19 04:58:28;;;;;;;29.10;12.13;;;;;;;13.67;75.43;98360.94;10224848;28;20587;-59
2023/10/19 05:03:30;;;;;;;28.38;12.68;;;;;;;13.69;75.50;98361.50;10222022;28;20074;-59
2023/10/19 05:08:32;;;;;;;32.75;13.15;;;;;;;13.75;75.26;98368.63;10223177;28;20835;-60
2023/10/19 05:13:35;;;;;;;31.48;12.15;;;;;;;13.78;75.11;98370.00;10223855;28;20141;-59
2023/10/19 05:18:37;;;;;;;28.23;11.75;;;;;;;13.82;75.06;98368.44;10219360;28;20138;-59
2023/10/19 05:23:38;;;;;;;29.02;10.77;;;;;;;13.71;75.57;98385.56;10222758;28;20047;-58
2023/10/19 05:28:39;;;;;;;24.02;11.38;;;;;;;13.77;75.31;98353.00;10224913;28;20070;-59
2023/10/19 05:33:41;;;;;;;31.50;13.02;;;;;;;13.82;75.33;98366.59;10218058;28;20063;-59
2023/10/19 05:38:43;;;;;;;34.10;13.20;;;;;;;13.86;75.23;98364.19;10220043;28;20039;-59
2023/10/19 05:43:45;;;;;;;35.65;12.55;;;;;;;13.86;75.44;98364.19;10221395;28;20047;-59
2023/10/19 05:48:46;;;;;;;32.53;12.60;;;;;;;13.88;75.37;98370.16;10247055;28;20039;-59
2023/10/19 05:53:48;;;;;;;34.75;13.45;;;;;;;13.78;75.92;98361.91;10214030;28;20047;-60
2023/10/19 05:58:50;;;;;;;35.53;12.70;;;;;;;13.93;75.59;98358.63;10208526;28;20085;-62
2023/10/19 06:03:52;;;;;;;44.25;15.02;;;;;;;13.91;75.66;98358.06;10212649;28;20415;-60
2023/10/19 06:08:53;;;;;;;61.83;15.57;;;;;;;13.86;75.99;98347.97;10213758;28;20046;-65
2023/10/19 06:13:55;;;;;;;78.95;17.48;;;;;;;13.91;75.65;98366.16;10218539;28;20157;-61
2023/10/19 06:18:57;;;;;;;80.90;17.63;;;;;;;14.01;75.56;98356.31;10213180;28;20043;-61
2023/10/19 06:23:58;;;;;;;67.15;17.67;;;;;;;14.11;75.50;98349.44;10209641;28;20083;-66
2023/10/19 06:29:00;;;;;;;80.25;17.67;;;;;;;14.04;75.72;98361.25;10211700;28;20047;-65
2023/10/19 06:34:01;;;;;;;81.78;19.13;;;;;;;14.11;75.46;98360.25;10222789;28;20051;-65
2023/10/19 06:39:06;;;;;;;77.97;17.42;;;;;;;14.22;75.34;98360.13;10213076;28;20050;-66
2023/10/19 06:44:07;;;;;;;85.82;18.83;;;;;;;14.04;75.76;98363.94;10217120;28;20062;-66
2023/10/19 06:49:09;;;;;;;104.88;19.70;;;;;;;14.17;75.50;98370.06;10221949;28;20047;-66
2023/10/19 06:54:13;;;;;;;85.85;18.92;;;;;;;14.25;75.36;98373.13;10215505;28;20055;-66
2023/10/19 06:59:14;;;;;;;94.20;19.88;;;;;;;14.34;75.24;98365.44;10205320;28;20043;-62
2023/10/19 07:04:15;;;;;;;90.53;17.02;;;;;;;14.43;75.14;98369.31;10224784;28;20071;-63
2023/10/19 07:09:18;;;;;;;104.13;20.88;;;;;;;14.48;75.27;98366.69;10225861;28;20047;-62
2023/10/19 07:14:22;;;;;;;120.40;20.65;;;;;;;14.52;75.37;98371.63;10226196;28;20050;-63
2023/10/19 07:19:23;;;;;;;111.38;20.17;;;;;;;14.56;75.40;98368.19;10224070;28;20040;-63
2023/10/19 07:24:25;;;;;;;101.53;18.90;;;;;;;14.64;75.35;98373.16;10235314;28;20640;-62
2023/10/19 07:29:26;;;;;;;93.35;19.85;;;;;;;14.71;75.07;98374.84;10235068;28;20074;-65
2023/10/19 07:34:33;;;;;;;102.82;18.42;;;;;;;14.76;75.08;98367.63;10224300;28;20054;-65
2023/10/19 07:39:35;;;;;;;92.53;17.73;;;;;;;14.83;75.12;98362.00;10213668;28;20047;-64
2023/10/19 07:44:37;;;;;;;103.72;19.60;;;;;;;14.87;74.92;98361.25;10240407;28;20153;-62
2023/10/19 07:49:39;;;;;;;101.13;19.38;;;;;;;14.93;75.19;98359.44;10235071;28;20042;-63
2023/10/19 07:54:40;;;;;;;106.25;20.45;;;;;;;14.98;75.03;98370.28;10223833;28;20610;-63
2023/10/19 07:59:42;;;;;;;115.30;21.85;;;;;;;15.04;74.86;98363.06;10219914;28;20054;-63
2023/10/19 08:04:44;;;;;;;104.70;19.50;;;;;;;15.04;74.97;98379.28;10244639;28;20055;-61
2023/10/19 08:09:45;;;;;;;109.15;21.10;;;;;;;14.95;75.07;98375.38;10223764;28;20484;-62
2023/10/19 08:14:47;;;;;;;112.45;21.25;;;;;;;14.96;75.07;98372.44;10257366;28;20050;-61
2023/10/19 08:19:48;;;;;;;141.57;22.45;;;;;;;14.99;75.24;98366.53;10225004;28;20047;-62
2023/10/19 08:24:51;;;;;;;95.53;20.85;;;;;;;15.05;75.11;98364.72;10223014;28;20067;-63
2023/10/19 08:29:53;;;;;;;111.57;19.65;;;;;;;15.10;75.04;98362.03;10221601;28;20121;-63
2023/10/19 08:34:54;;;;;;;87.78;18.45;;;;;;;15.14;75.17;98357.75;10222474;28;20048;-61
2023/10/19 08:39:56;;;;;;;185.02;21.30;;;;;;;15.17;75.10;98370.78;10226403;28;20046;-59
2023/10/19 08:44:59;;;;;;;154.40;20.67;;;;;;;15.21;75.06;98371.09;10217964;28;20047;-58
2023/10/19 08:50:02;;;;;;;89.07;21.17;;;;;;;15.24;75.08;98371.41;10220205;28;20087;-59
2023/10/19 08:55:04;;;;;;;89.25;20.52;;;;;;;15.32;74.86;98364.69;10222908;28;20044;-60
2023/10/19 09:00:06;;;;;;;117.03;20.40;;;;;;;15.42;74.82;98362.09;10223905;28;20043;-60
2023/10/19 09:05:08;;;;;;;101.82;20.30;;;;;;;15.47;74.92;98339.66;10216653;28;20082;-59
2023/10/19 09:10:15;;;;;;;96.57;22.80;;;;;;;15.55;74.99;98325.63;10218754;28;20055;-60
2023/10/19 09:15:26;;;;;;;85.15;20.02;;;;;;;15.66;75.00;98324.66;10228521;28;20135;-58
2023/10/19 09:20:27;;;;;;;86.97;23.02;;;;;;;15.71;75.20;98318.44;10219541;28;20069;-60
2023/10/19 09:25:29;;;;;;;80.68;20.98;;;;;;;15.78;74.88;98323.69;10216689;28;20407;-62
2023/10/19 09:30:31;;;;;;;95.82;20.95;;;;;;;15.84;74.65;98331.59;10215728;28;20038;-59
2023/10/19 09:35:34;;;;;;;90.57;21.65;;;;;;;15.91;74.79;98322.41;10219826;28;20054;-60
2023/10/19 09:40:38;;;;;;;130.15;21.25;;;;;;;15.86;74.81;98315.88;10219126;28;20039;-59
2023/10/19 09:45:42;;;;;;;92.30;20.90;;;;;;;15.86;74.99;98307.75;10219297;28;20115;-60
2023/10/19 09:50:54;;;;;;;83.25;20.23;;;;;;;16.02;74.79;98303.25;10220161;28;20052;-61
2023/10/19 09:55:58;;;;;;;71.20;20.88;;;;;;;16.13;74.74;98300.59;10213084;28;20051;-60
2023/10/19 10:01:02;;;;;;;75.82;22.42;;;;;;;16.20;74.71;98293.03;10216468;28;20106;-59
2023/10/19 10:06:04;;;;;;;74.38;21.02;;;;;;;16.20;75.00;98306.59;10223231;28;20046;-64
2023/10/19 10:11:26;;;;;;;73.70;23.35;;;;;;;16.21;75.05;98289.25;10235865;28;20058;-62
2023/10/19 10:16:28;;;;;;;67.03;21.95;;;;;;;16.20;75.24;98298.47;10229075;28;20623;-62
2023/10/19 10:21:30;;;;;;;81.30;22.60;;;;;;;16.04;75.53;98303.00;10240825;28;20098;-63
2023/10/19 10:27:02;;;;;;;71.22;22.88;;;;;;;15.99;75.95;98289.41;10231725;28;20047;-62
2023/10/19 10:32:06;;;;;;;71.00;22.50;;;;;;;16.01;75.77;98276.41;10237533;28;20087;-61
2023/10/19 10:37:13;;;;;;;71.43;23.02;;;;;;;16.25;75.23;98283.03;10244901;28;20048;-65
2023/10/19 10:42:16;;;;;;;70.72;22.77;;;;;;;16.02;76.21;98281.56;10267364;28;20061;-63
2023/10/19 10:47:24;;;;;;;67.68;23.88;;;;;;;15.98;76.30;98287.78;10226644;28;20055;-63
2023/10/19 10:52:34;;;;;;;78.10;23.50;;;;;;;16.02;76.30;98292.41;10214482;28;20067;-63
2023/10/19 10:57:36;;;;;;;68.00;22.65;;;;;;;16.29;75.64;98296.06;10218242;28;20054;-62
2023/10/19 11:02:42;;;;;;;70.80;24.00;;;;;;;16.41;75.68;98289.34;10220696;28;20051;-63
2023/10/19 11:08:09;;;;;;;81.50;26.25;;;;;;;16.36;76.18;98273.03;10247997;28;20054;-61
2023/10/19 11:13:16;;;;;;;72.68;23.20;;;;;;;16.54;76.09;98285.31;10217222;28;20357;-62
2023/10/19 11:18:28;;;;;;;;;;;;;;;16.85;75.37;98277.31;10219633;28;20059;-61
2023/10/19 11:23:36;;;;;;;64.18;21.77;;;;;;;17.03;74.65;98267.84;10213696;28;19923;-63
2023/10/19 11:28:53;;;;;;;62.00;23.00;;;;;;;17.23;74.40;98264.31;10220488;28;20067;-61
2023/10/19 11:33:58;;;;;;;57.58;24.35;;;;;;;17.40;74.40;98256.72;10228939;28;20406;-61
2023/10/19 11:38:59;;;;;;;63.63;22.55;;;;;;;17.47;74.11;98237.41;10216173;28;20050;-62
2023/10/19 11:44:01;;;;;;;61.60;22.20;;;;;;;17.43;74.21;98239.06;10215212;28;20050;-61
2023/10/19 11:49:03;;;;;;;56.03;22.20;;;;;;;17.24;74.73;98242.31;10219717;28;20107;-62
2023/10/19 11:54:08;;;;;;;67.93;24.33;;;;;;;17.35;74.09;98231.47;10212814;28;20074;-62
2023/10/19 11:59:12;;;;;;;59.03;22.02;;;;;;;17.24;74.54;98242.31;10214462;28;20055;-62
2023/10/19 12:04:13;;;;;;;62.28;20.77;;;;;;;17.37;74.42;98224.66;10217861;28;20055;-62
2023/10/19 12:09:15;;;;;;;63.88;24.58;;;;;;;17.59;73.92;98220.81;10218148;28;20083;-63
2023/10/19 12:14:17;;;;;;;63.80;24.40;;;;;;;17.59;73.90;98216.19;10219959;28;20127;-63
2023/10/19 12:19:19;;;;;;;59.65;23.15;;;;;;;17.63;73.96;98211.03;10226207;28;20139;-64
2023/10/19 12:24:21;;;;;;;62.05;22.88;;;;;;;17.73;73.74;98210.19;10218099;28;20527;-59
2023/10/19 12:29:22;;;;;;;54.85;21.77;;;;;;;17.73;73.86;98207.47;10220460;28;20051;-59
2023/10/19 12:34:24;;;;;;;54.17;23.20;;;;;;;17.78;73.84;98199.31;10219444;28;20055;-59
2023/10/19 12:39:45;;;;;;;57.65;21.48;;;;;;;17.89;74.00;98200.97;10219928;28;20048;-59
2023/10/19 12:44:46;;;;;;;45.95;20.63;;;;;;;18.15;73.32;98195.44;10223659;28;20122;-58
2023/10/19 12:49:49;;;;;;;50.83;21.35;;;;;;;18.31;73.06;98188.81;10222743;28;20046;-60
2023/10/19 12:54:58;;;;;;;47.97;20.13;;;;;;;18.41;72.86;98185.22;10222323;28;20453;-59
2023/10/19 13:00:23;;;;;;;44.15;20.98;;;;;;;18.39;72.60;98180.06;10222483;28;20043;-60
2023/10/19 13:05:25;;;;;;;46.38;20.33;;;;;;;18.49;72.54;98167.50;10217818;28;20047;-60
2023/10/19 13:10:33;;;;;;;45.80;20.00;;;;;;;18.46;72.31;98157.16;10227310;28;20048;-57
2023/10/19 13:15:36;;;;;;;48.88;20.20;;;;;;;18.38;72.54;98161.28;10223430;28;20062;-59
2023/10/19 13:20:38;;;;;;;54.97;20.98;;;;;;;18.46;72.12;98154.44;10224584;28;20070;-59
2023/10/19 13:26:08;;;;;;;43.85;19.75;;;;;;;18.38;72.43;98144.97;10221075;28;20050;-58
2023/10/19 13:31:13;;;;;;;51.45;21.58;;;;;;;18.25;72.88;98140.97;10223210;28;20054;-60
2023/10/19 13:36:16;;;;;;;42.17;18.50;;;;;;;18.34;72.47;98135.75;10228620;28;20078;-61
2023/10/19 13:41:18;;;;;;;46.42;20.27;;;;;;;18.42;72.44;98127.81;10218766;28;20051;-61
2023/10/19 13:46:23;;;;;;;50.63;20.02;;;;;;;18.49;72.25;98143.00;10219097;28;20071;-60
2023/10/19 13:51:25;;;;;;;45.95;18.98;;;;;;;18.51;72.26;98130.75;10220561;28;20496;-59
2023/10/19 13:56:27;;;;;;;52.40;21.73;;;;;;;18.55;72.19;98141.88;10219510;28;20272;-59
2023/10/19 14:01:28;;;;;;;51.13;21.83;;;;;;;18.50;72.25;98131.03;10217991;28;20039;-59
2023/10/19 14:06:31;;;;;;;52.95;21.60;;;;;;;18.46;72.43;98132.69;10217637;28;20061;-59
2023/10/19 14:11:32;;;;;;;48.53;20.33;;;;;;;18.48;72.45;98130.50;10216393;28;20055;-61
2023/10/19 14:16:34;;;;;;;49.38;21.05;;;;;;;18.48;72.72;98134.03;10217531;28;20051;-59
2023/10/19 14:21:40;;;;;;;47.95;20.33;;;;;;;18.49;72.50;98129.41;10216755;28;20075;-60
2023/10/19 14:26:42;;;;;;;51.33;21.05;;;;;;;18.50;72.65;98118.22;10221189;28;20046;-59
2023/10/19 14:31:44;;;;;;;49.92;22.38;;;;;;;18.51;72.43;98106.25;10216184;28;20041;-59
2023/10/19 14:36:45;;;;;;;51.95;21.45;;;;;;;18.55;72.55;98101.06;10217008;28;20055;-59
2023/10/19 14:41:47;;;;;;;54.42;21.52;;;;;;;18.49;72.61;98094.03;10214979;28;20503;-60
2023/10/19 14:46:48;;;;;;;51.20;21.70;;;;;;;18.49;72.52;98097.56;10215183;28;20062;-58
2023/10/19 14:51:50;;;;;;;48.75;21.42;;;;;;;18.46;72.58;98081.78;10215374;28;20051;-62
2023/10/19 14:56:51;;;;;;;55.08;22.15;;;;;;;18.49;72.44;98072.28;10213476;28;20046;-61
2023/10/19 15:01:53;;;;;;;52.92;23.58;;;;;;;18.49;72.68;98062.19;10215445;28;20043;-59
2023/10/19 15:06:55;;;;;;;51.95;20.88;;;;;;;18.51;72.52;98056.47;10240716;28;20502;-59
2023/10/19 15:11:56;;;;;;;50.28;22.38;;;;;;;18.49;72.78;98031.47;10219983;28;20040;-58
2023/10/19 15:16:58;;;;;;;52.60;23.35;;;;;;;18.42;73.12;98018.16;10217935;28;20525;-59
2023/10/19 15:21:59;;;;;;;49.42;22.75;;;;;;;18.38;73.07;98003.53;10210624;28;20786;-59
2023/10/19 15:27:01;;;;;;;48.85;21.00;;;;;;;18.32;73.30;97983.72;10204435;28;20158;-59
2023/10/19 15:32:02;;;;;;;50.90;22.45;;;;;;;18.26;73.66;97965.81;10218827;28;20055;-61
2023/10/19 15:37:04;;;;;;;43.72;19.05;;;;;;;18.20;73.77;97967.75;10244521;28;20044;-59
2023/10/19 15:42:08;;;;;;;48.58;19.38;;;;;;;18.21;73.61;97957.72;10215599;28;20126;-59
2023/10/19 15:47:12;;;;;;;46.00;18.67;;;;;;;18.24;73.79;97951.69;10216914;28;20162;-58
2023/10/19 15:52:17;;;;;;;43.03;16.73;;;;;;;18.23;73.89;97944.66;10225085;28;20051;-65
2023/10/19 15:57:19;;;;;;;36.47;18.33;;;;;;;18.31;73.93;97916.03;10224725;28;20051;-67
2023/10/19 16:02:21;;;;;;;38.90;17.08;;;;;;;18.35;73.60;97895.31;10222125;28;20046;-66
2023/10/19 16:07:22;;;;;;;39.35;16.45;;;;;;;18.31;73.86;97889.63;10226403;28;20050;-66
2023/10/19 16:12:24;;;;;;;29.92;13.73;;;;;;;18.26;73.91;97881.50;10225471;28;20047;-66
2023/10/19 16:17:26;;;;;;;36.95;15.15;;;;;;;18.22;73.92;97899.50;10221734;28;20039;-67
2023/10/19 16:22:28;;;;;;;33.25;16.40;;;;;;;18.00;74.35;97908.94;10224083;28;20083;-64
2023/10/19 16:27:30;;;;;;;36.50;15.77;;;;;;;17.74;74.93;97937.38;10243740;28;20055;-65
2023/10/19 16:32:35;;;;;;;38.13;15.48;;;;;;;17.52;75.55;97954.91;10245433;28;20047;-65
2023/10/19 16:37:37;;;;;;;36.97;17.75;;;;;;;17.35;76.11;97976.19;10265962;28;20525;-66
2023/10/19 16:42:39;;;;;;;37.45;16.25;;;;;;;17.40;76.16;97957.16;10278247;28;20058;-67
2023/10/19 16:47:42;;;;;;;38.08;15.88;;;;;;;17.62;75.29;97960.28;10273703;28;20394;-67
2023/10/19 16:52:45;;;;;;;35.05;15.15;;;;;;;17.67;74.94;97939.59;10272676;28;20142;-68
2023/10/19 16:57:46;;;;;;;33.38;15.48;;;;;;;17.72;74.59;97945.81;10272568;28;20071;-61
2023/10/19 17:02:48;;;;;;;44.28;17.73;;;;;;;17.74;74.51;97956.41;10240361;28;20127;-60
2023/10/19 17:07:50;;;;;;;43.20;17.45;;;;;;;17.64;74.82;97968.16;10212219;28;20056;-60
2023/10/19 17:12:51;;;;;;;46.15;20.02;;;;;;;17.63;75.12;97967.34;10213383;28;20059;-61
2023/10/19 17:17:53;;;;;;;35.42;16.33;;;;;;;17.71;74.99;97973.25;10221516;28;20047;-61
2023/10/19 17:22:56;;;;;;;42.63;19.38;;;;;;;17.54;75.36;97982.59;10226451;28;20043;-61
2023/10/19 17:27:57;;;;;;;39.78;17.67;;;;;;;17.60;75.42;97973.31;10236476;28;20051;-60
2023/10/19 17:32:59;;;;;;;52.63;19.17;;;;;;;17.70;74.93;97969.75;10215086;28;20411;-60
2023/10/19 17:38:12;;;;;;;36.65;17.88;;;;;;;17.74;74.84;97959.94;10228245;28;20047;-61
2023/10/19 17:43:14;;;;;;;38.30;17.85;;;;;;;17.76;74.79;97954.22;10222585;28;20071;-60
2023/10/19 17:48:17;;;;;;;42.63;18.58;;;;;;;17.74;74.78;97956.41;10222634;28;20058;-60
2023/10/19 17:53:18;;;;;;;42.60;18.90;;;;;;;17.75;74.58;97939.00;10231581;28;20043;-60
2023/10/19 17:58:20;;;;;;;42.08;18.17;;;;;;;17.76;74.68;97921.59;10223544;28;20067;-60
2023/10/19 18:03:24;;;;;;;42.55;18.90;;;;;;;17.76;74.60;97944.16;10225031;28;20567;-59
2023/10/19 18:08:27;;;;;;;41.08;18.20;;;;;;;17.69;74.90;97959.94;10249610;28;20054;-59
2023/10/19 18:13:30;;;;;;;43.75;18.38;;;;;;;17.74;74.82;97951.78;10216362;28;20057;-60
2023/10/19 18:18:32;;;;;;;41.55;19.30;;;;;;;17.74;74.86;97953.69;10228306;28;20063;-60
2023/10/19 18:23:33;;;;;;;40.80;18.17;;;;;;;17.73;74.81;97965.63;10220022;28;20134;-60
2023/10/19 18:28:37;;;;;;;52.35;19.60;;;;;;;17.71;74.73;97962.38;10234130;28;20499;-63
2023/10/19 18:33:39;;;;;;;49.05;21.55;;;;;;;17.73;74.75;97960.19;10257176;28;20055;-60
2023/10/19 18:38:42;;;;;;;49.60;21.85;;;;;;;17.74;74.82;97948.25;10219828;28;20059;-59
2023/10/19 18:43:44;;;;;;;36.42;16.58;;;;;;;17.73;74.67;97927.59;10216647;28;20054;-60
2023/10/19 18:48:46;;;;;;;39.85;17.33;;;;;;;17.71;74.90;97919.72;10216048;28;20103;-59
2023/10/19 18:53:47;;;;;;;40.03;18.48;;;;;;;17.71;75.05;97902.59;10216285;28;20043;-60
2023/10/19 18:58:49;;;;;;;44.30;16.92;;;;;;;17.72;74.69;97890.66;10216265;28;20368;-60
2023/10/19 19:03:51;;;;;;;37.30;15.65;;;;;;;17.72;74.65;97898.81;10246762;28;20043;-60
2023/10/19 19:08:52;;;;;;;38.38;14.48;;;;;;;17.70;74.81;97888.22;10222250;28;20062;-59
2023/10/19 19:13:54;;;;;;;28.88;13.85;;;;;;;17.70;74.88;97884.69;10222329;28;20047;-61
2023/10/19 19:18:55;;;;;;;33.63;13.57;;;;;;;17.71;74.94;97870.00;10217256;28;20059;-61
2023/10/19 19:23:58;;;;;;;23.10;10.43;;;;;;;17.70;74.96;97868.41;10264273;28;20052;-59
2023/10/19 19:29:01;;;;;;;26.35;11.30;;;;;;;17.67;75.13;97872.47;10243081;28;20066;-59
2023/10/19 19:34:03;;;;;;;15.18;7.95;;;;;;;17.63;75.47;97861.38;10249602;28;20094;-59
2023/10/19 19:39:07;;;;;;;14.70;7.82;;;;;;;17.67;75.41;97874.38;10226999;28;20094;-59
2023/10/19 19:44:08;;;;;;;11.63;6.45;;;;;;;17.69;75.45;97880.34;10232003;28;20134;-60
2023/10/19 19:49:10;;;;;;;13.23;6.82;;;;;;;17.70;75.56;97880.06;10229259;28;20043;-59
2023/10/19 19:54:11;;;;;;;13.95;6.88;;;;;;;17.81;75.33;97875.34;10222804;28;20129;-65
2023/10/19 19:59:13;;;;;;;14.23;7.07;;;;;;;17.84;75.23;97870.19;10223274;28;20127;-66
2023/10/19 20:04:14;;;;;;;11.70;6.53;;;;;;;17.88;75.16;97856.06;10219555;28;20466;-64
2023/10/19 20:09:17;;;;;;;12.60;6.30;;;;;;;17.89;75.24;97858.50;10225807;28;20133;-65
2023/10/19 20:14:19;;;;;;;13.43;7.03;;;;;;;17.88;75.08;97854.13;10228398;28;20043;-64
2023/10/19 20:19:20;;;;;;;12.38;6.70;;;;;;;17.83;75.23;97845.97;10227765;28;20134;-64
2023/10/19 20:24:23;;;;;;;12.10;6.45;;;;;;;17.70;75.57;97839.31;10223775;28;20043;-66
2023/10/19 20:29:25;;;;;;;12.25;7.00;;;;;;;17.68;75.55;97841.50;10227049;28;20455;-64
2023/10/19 20:34:27;;;;;;;14.45;7.15;;;;;;;17.60;75.79;97848.34;10221883;28;20047;-65
2023/10/19 20:39:28;;;;;;;10.85;7.03;;;;;;;17.59;75.86;97846.72;10218388;28;20118;-64
2023/10/19 20:44:39;;;;;;;14.48;7.35;;;;;;;17.59;75.68;97844.00;10221419;28;20051;-65
2023/10/19 20:49:41;;;;;;;14.23;7.18;;;;;;;17.61;75.56;97839.13;10232515;28;20043;-64
2023/10/19 20:54:42;;;;;;;13.52;6.45;;;;;;;17.55;75.22;97823.94;10272421;28;20047;-63
2023/10/19 20:59:44;;;;;;;15.82;6.65;;;;;;;17.51;75.42;97814.72;10269363;28;20517;-65
2023/10/19 21:04:45;;;;;;;14.18;7.85;;;;;;;17.48;75.33;97807.16;10229576;28;20054;-64
2023/10/19 21:09:47;;;;;;;14.23;6.95;;;;;;;17.48;75.37;97796.31;10260394;28;20043;-65
2023/10/19 21:14:49;;;;;;;14.15;7.63;;;;;;;17.49;75.28;97786.25;10237275;28;20139;-66
2023/10/19 21:19:51;;;;;;;16.75;7.45;;;;;;;17.47;75.49;97786.53;10240706;28;20071;-66
2023/10/19 21:24:52;;;;;;;15.30;8.15;;;;;;;17.47;75.40;97783.00;10233105;28;20617;-65
2023/10/19 21:29:54;;;;;;;12.93;7.88;;;;;;;17.45;75.44;97773.22;10246856;28;20046;-63
2023/10/19 21:34:57;;;;;;;11.85;7.50;;;;;;;17.49;75.41;97764.50;10240880;28;20128;-64
2023/10/19 21:39:59;;;;;;;13.68;7.57;;;;;;;17.48;75.38;97752.03;10253320;28;20518;-66
2023/10/19 21:45:01;;;;;;;19.45;8.55;;;;;;;17.42;75.69;97748.56;10215613;28;20040;-60
2023/10/19 21:50:04;;;;;;;14.52;7.75;;;;;;;17.32;75.87;97744.03;10218742;28;20709;-61
2023/10/19 21:55:13;;;;;;;17.80;8.10;;;;;;;17.17;76.39;97739.50;10216575;28;20046;-61
2023/10/19 22:00:25;;;;;;;15.68;7.28;;;;;;;17.09;76.72;97731.19;10214784;28;20575;-61
2023/10/19 22:05:28;;;;;;;18.77;8.65;;;;;;;17.00;76.90;97710.06;10219566;28;20053;-63
2023/10/19 22:10:32;;;;;;;14.23;7.43;;;;;;;16.91;77.43;97709.03;10220377;28;20050;-63
2023/10/19 22:15:34;;;;;;;19.13;7.45;;;;;;;16.83;77.61;97699.59;10225648;28;20075;-63
2023/10/19 22:20:36;;;;;;;20.42;8.38;;;;;;;16.85;77.62;97700.13;10222103;28;20050;-63
2023/10/19 22:25:38;;;;;;;16.70;8.25;;;;;;;16.82;77.88;97694.44;10220008;28;20067;-62
2023/10/19 22:30:41;;;;;;;15.88;7.13;;;;;;;16.80;77.79;97689.28;10223055;28;20051;-62
2023/10/19 22:35:43;;;;;;;20.67;7.57;;;;;;;16.77;78.03;97687.13;10220935;28;20047;-62
2023/10/19 22:40:44;;;;;;;15.40;7.25;;;;;;;16.79;78.37;97670.59;10219840;28;20044;-63
2023/10/19 22:45:46;;;;;;;16.42;6.88;;;;;;;16.81;78.25;97661.09;10220478;28;20138;-63
2023/10/19 22:50:47;;;;;;;15.13;6.88;;;;;;;16.77;78.43;97649.16;10216066;28;20048;-63
2023/10/19 22:55:49;;;;;;;16.23;6.93;;;;;;;16.78;78.40;97633.69;10218720;28;20047;-63
2023/10/19 23:00:50;;;;;;;14.68;6.97;;;;;;;16.79;78.24;97632.59;10219704;28;20051;-64
2023/10/19 23:05:53;;;;;;;15.82;6.88;;;;;;;16.77;78.55;97637.50;10214969;28;20500;-64
2023/10/19 23:10:56;;;;;;;20.85;7.45;;;;;;;16.64;79.00;97631.59;10214165;28;20070;-65